Terminal Aerodrome Forecast
Issued by NWS

Home | Current Version | Previous Version | Text Only | Print | Product List | Glossary On
Versions: 1 2 3 4 5 6 7 8 9 10 11 12 13 14 15 16 17 18 19 20 21 22 23
000
FTUS43 KLSX 242300
TAFSUS
TAF
KSUS 242329Z 2500/2524 30012KT 6SM -SHRA SCT035 OVC050
      TEMPO 2500/2502 4SM -TSRA BKN040CB
     FM250200 18009KT 6SM -RA BR OVC035
     FM250400 29014G24KT P6SM OVC018
     FM250700 30016G26KT P6SM FEW150
     FM251000 30014KT P6SM SKC
     FM252100 25010KT P6SM SKC=

USA.gov is the U.S. government's official web portal to all federal, state and local government web resources and services.